createdAt,value
2022-08-17T00:00:42.878Z,94.78
2022-08-17T00:01:52.099Z,94.79
2022-08-17T00:02:58.466Z,94.76
2022-08-17T00:04:01.550Z,94.74
2022-08-17T00:05:04.321Z,94.75
2022-08-17T00:06:14.116Z,94.74
2022-08-17T00:07:16.767Z,94.74
2022-08-17T00:08:21.342Z,94.74
2022-08-17T00:09:24.233Z,94.74
2022-08-17T00:10:26.976Z,94.77
2022-08-17T00:11:31.812Z,94.77
2022-08-17T00:12:43.053Z,94.80
2022-08-17T00:13:48.859Z,94.78
2022-08-17T00:14:51.524Z,94.81
2022-08-17T00:16:02.084Z,94.80
2022-08-17T00:17:06.469Z,94.82
2022-08-17T00:18:58.171Z,94.80
2022-08-17T00:19:33.013Z,94.79
2022-08-17T00:20:35.900Z,94.77
2022-08-17T00:22:31.782Z,94.78
2022-08-17T00:23:07.790Z,94.84
2022-08-17T00:24:11.049Z,94.88
2022-08-17T00:25:15.603Z,94.86
2022-08-17T00:26:34.877Z,94.85
2022-08-17T00:27:42.472Z,94.85
2022-08-17T00:28:45.381Z,94.87
2022-08-17T00:29:48.229Z,94.87
2022-08-17T00:30:53.110Z,94.88
2022-08-17T00:31:56.338Z,94.90
2022-08-17T00:33:11.932Z,94.92
2022-08-17T00:34:19.168Z,94.89
2022-08-17T00:35:27.716Z,94.90
2022-08-17T00:36:30.400Z,94.86
2022-08-17T00:37:33.062Z,94.83
2022-08-17T00:38:36.022Z,94.87
2022-08-17T00:39:38.898Z,94.88
2022-08-17T00:40:49.529Z,94.88
2022-08-17T00:41:54.593Z,94.89
2022-08-17T00:43:09.321Z,94.95
2022-08-17T00:44:13.838Z,94.91
2022-08-17T00:45:17.716Z,94.89
2022-08-17T00:46:24.144Z,94.91
2022-08-17T00:47:27.107Z,94.90
2022-08-17T00:48:30.943Z,94.92
2022-08-17T00:49:33.862Z,94.89
2022-08-17T00:50:37.238Z,94.95
2022-08-17T00:52:10.867Z,94.90
2022-08-17T00:53:15.176Z,94.89
2022-08-17T00:54:24.115Z,94.87
2022-08-17T00:55:27.757Z,94.89
2022-08-17T00:56:33.381Z,94.89
2022-08-17T00:57:40.433Z,94.85
2022-08-17T00:58:43.332Z,94.82
2022-08-17T00:59:51.111Z,94.84
2022-08-17T01:01:06.604Z,94.78
2022-08-17T01:02:12.611Z,94.70
2022-08-17T01:03:21.468Z,94.72
2022-08-17T01:04:26.308Z,94.71
2022-08-17T01:05:30.944Z,94.71
2022-08-17T01:06:33.924Z,94.72
2022-08-17T01:07:37.979Z,94.72
2022-08-17T01:08:40.996Z,94.76
2022-08-17T01:09:44.588Z,94.77
2022-08-17T01:10:59.417Z,94.80
2022-08-17T01:12:08.503Z,94.83
2022-08-17T01:13:12.154Z,94.87
2022-08-17T01:14:15.032Z,94.87
2022-08-17T01:15:17.901Z,94.86
2022-08-17T01:16:23.321Z,94.87
2022-08-17T01:17:27.360Z,94.88
2022-08-17T01:18:31.215Z,94.87
2022-08-17T01:19:35.900Z,94.90
2022-08-17T01:20:47.903Z,94.91
2022-08-17T01:22:07.494Z,94.91
2022-08-17T01:23:10.305Z,94.94
2022-08-17T01:24:21.193Z,94.93
2022-08-17T01:25:25.043Z,94.90
2022-08-17T01:26:29.015Z,94.90
2022-08-17T01:27:31.955Z,94.89
2022-08-17T01:28:54.509Z,94.90
2022-08-17T01:30:00.202Z,94.91
2022-08-17T01:32:38.549Z,94.89
2022-08-17T01:33:41.353Z,94.91
2022-08-17T01:34:50.492Z,94.91
2022-08-17T01:35:53.655Z,94.92
2022-08-17T01:36:58.506Z,94.92
2022-08-17T01:38:01.359Z,94.93
2022-08-17T01:39:05.734Z,94.89
2022-08-17T01:40:28.054Z,94.95
2022-08-17T01:41:30.803Z,94.88
2022-08-17T01:42:36.781Z,94.84
2022-08-17T01:43:45.040Z,94.82
2022-08-17T01:44:48.207Z,94.84
2022-08-17T01:46:03.259Z,94.83
2022-08-17T01:47:06.593Z,94.78
2022-08-17T01:48:09.994Z,94.78
2022-08-17T01:49:12.947Z,94.76
2022-08-17T01:50:18.221Z,94.76
2022-08-17T01:51:21.553Z,94.73
2022-08-17T01:52:24.229Z,94.57
2022-08-17T01:53:32.618Z,94.63
2022-08-17T01:54:36.288Z,94.68
2022-08-17T01:55:52.550Z,94.70
2022-08-17T01:56:55.343Z,94.69
2022-08-17T01:57:58.259Z,94.71
2022-08-17T01:59:01.705Z,94.71
2022-08-17T02:00:06.475Z,94.75
2022-08-17T02:01:14.817Z,94.78
2022-08-17T02:02:31.210Z,94.69
2022-08-17T02:03:35.629Z,94.75
2022-08-17T02:04:38.385Z,94.76
2022-08-17T02:05:41.443Z,94.75
2022-08-17T02:06:47.029Z,94.75
2022-08-17T02:08:00.286Z,94.75
2022-08-17T02:09:03.997Z,94.77
2022-08-17T02:10:20.147Z,94.79
2022-08-17T02:11:23.166Z,94.85
2022-08-17T02:12:38.877Z,94.87
2022-08-17T02:13:43.253Z,94.84
2022-08-17T02:14:46.332Z,94.87
2022-08-17T02:15:48.996Z,94.94
2022-08-17T02:16:52.095Z,94.91
2022-08-17T02:17:55.010Z,94.89
2022-08-17T02:18:57.935Z,94.86
2022-08-17T02:20:00.643Z,94.85
2022-08-17T02:21:03.559Z,94.87
2022-08-17T02:22:06.409Z,94.85
2022-08-17T02:23:10.709Z,94.86
2022-08-17T02:24:17.451Z,94.85
2022-08-17T02:25:42.094Z,94.87
2022-08-17T02:26:46.271Z,94.86
2022-08-17T02:27:48.973Z,94.85
2022-08-17T02:28:51.776Z,94.84
2022-08-17T02:29:55.687Z,94.86
2022-08-17T02:31:03.739Z,94.86
2022-08-17T02:32:06.579Z,94.87
2022-08-17T02:33:09.690Z,94.79
2022-08-17T02:34:12.480Z,94.82
2022-08-17T02:35:15.217Z,94.76
2022-08-17T02:36:27.243Z,94.86
2022-08-17T02:37:30.980Z,94.87
2022-08-17T02:38:33.658Z,94.88
2022-08-17T02:39:36.434Z,94.86
2022-08-17T02:40:40.519Z,94.85
2022-08-17T02:41:44.953Z,94.86
2022-08-17T02:42:49.052Z,94.86
2022-08-17T02:43:52.239Z,94.88
2022-08-17T02:44:54.970Z,94.91
2022-08-17T02:45:57.722Z,94.87
2022-08-17T02:47:00.615Z,94.90
2022-08-17T02:48:03.874Z,94.89
2022-08-17T02:49:06.596Z,94.88
2022-08-17T02:50:11.051Z,94.89
2022-08-17T02:51:13.856Z,94.90
2022-08-17T02:52:16.503Z,94.91
2022-08-17T02:53:39.238Z,94.89
2022-08-17T02:54:42.480Z,94.88
2022-08-17T02:55:45.459Z,94.89
2022-08-17T02:56:48.151Z,94.89
2022-08-17T02:57:51.513Z,94.92
2022-08-17T02:58:54.227Z,94.91
2022-08-17T02:59:56.995Z,94.90
2022-08-17T03:01:00.526Z,95.01
2022-08-17T03:02:04.155Z,94.79
2022-08-17T03:03:07.594Z,94.81
2022-08-17T03:04:10.238Z,94.82
2022-08-17T03:05:14.070Z,94.80
2022-08-17T03:06:16.724Z,94.81
2022-08-17T03:07:20.301Z,94.74
2022-08-17T03:08:23.425Z,94.78
2022-08-17T03:09:26.289Z,94.67
2022-08-17T03:10:29.801Z,94.61
2022-08-17T03:11:32.669Z,94.64
2022-08-17T03:12:37.641Z,94.66
2022-08-17T03:13:40.302Z,94.67
2022-08-17T03:14:43.499Z,94.69
2022-08-17T03:15:47.579Z,94.70
2022-08-17T03:16:50.363Z,94.74
2022-08-17T03:17:53.572Z,94.76
2022-08-17T03:18:56.729Z,94.65
2022-08-17T03:19:59.408Z,94.77
2022-08-17T03:21:04.658Z,94.80
2022-08-17T03:22:36.099Z,94.81
2022-08-17T03:23:31.123Z,94.78
2022-08-17T03:24:34.038Z,94.82
2022-08-17T03:25:41.207Z,94.83
2022-08-17T03:26:46.193Z,94.84
2022-08-17T03:27:49.446Z,94.84
2022-08-17T03:28:54.345Z,94.88
2022-08-17T03:29:57.028Z,94.91
2022-08-17T03:30:59.824Z,94.86
2022-08-17T03:32:10.367Z,94.85
2022-08-17T03:33:13.133Z,94.84
2022-08-17T03:34:16.640Z,94.86
2022-08-17T03:35:21.240Z,94.93
2022-08-17T03:36:23.900Z,94.88
2022-08-17T03:37:26.808Z,94.82
2022-08-17T03:38:29.535Z,94.98
2022-08-17T03:39:42.913Z,94.89
2022-08-17T03:40:58.931Z,94.91
2022-08-17T03:42:09.713Z,94.92
2022-08-17T03:43:32.771Z,94.92
2022-08-17T03:44:35.502Z,94.92
2022-08-17T03:45:57.172Z,94.94
2022-08-17T03:47:18.237Z,94.93
2022-08-17T03:48:39.791Z,94.93
2022-08-17T03:50:01.164Z,94.80
2022-08-17T03:51:22.455Z,94.84
2022-08-17T03:52:43.589Z,94.86
2022-08-17T03:54:06.158Z,94.80
2022-08-17T03:55:35.745Z,94.86
2022-08-17T03:56:42.321Z,94.87
2022-08-17T03:57:45.879Z,94.94
2022-08-17T03:58:49.354Z,94.92
2022-08-17T03:59:52.852Z,94.93
2022-08-17T04:00:55.767Z,94.94
2022-08-17T04:02:02.409Z,94.96
2022-08-17T04:03:05.122Z,94.95
2022-08-17T04:04:08.862Z,94.97
2022-08-17T04:05:11.593Z,95.01
2022-08-17T04:06:14.386Z,94.99
2022-08-17T04:07:17.405Z,95.08
2022-08-17T04:08:20.436Z,95.01
2022-08-17T04:09:23.113Z,94.99
2022-08-17T04:10:26.615Z,95.00
2022-08-17T04:11:29.267Z,95.06
2022-08-17T04:12:43.110Z,95.03
2022-08-17T04:13:45.806Z,95.04
2022-08-17T04:14:52.890Z,95.01
2022-08-17T04:15:59.296Z,95.04
2022-08-17T04:17:02.597Z,95.05
2022-08-17T04:18:07.460Z,95.05
2022-08-17T04:19:10.318Z,94.98
2022-08-17T04:20:13.571Z,94.97
2022-08-17T04:21:16.392Z,94.94
2022-08-17T04:22:30.627Z,94.97
2022-08-17T04:23:37.866Z,94.90
2022-08-17T04:24:40.499Z,94.98
2022-08-17T04:25:44.739Z,94.89
2022-08-17T04:26:53.682Z,94.65
2022-08-17T04:27:57.315Z,94.86
2022-08-17T04:29:00.133Z,94.87
2022-08-17T04:30:03.815Z,94.86
2022-08-17T04:31:06.611Z,94.76
2022-08-17T04:32:10.191Z,94.89
2022-08-17T04:33:14.699Z,94.89
2022-08-17T04:34:19.781Z,94.94
2022-08-17T04:35:25.539Z,94.96
2022-08-17T04:36:28.475Z,94.91
2022-08-17T04:37:31.598Z,94.96
2022-08-17T04:38:35.984Z,94.98
2022-08-17T04:39:38.763Z,95.02
2022-08-17T04:41:00.102Z,95.05
2022-08-17T04:42:17.177Z,95.12
2022-08-17T04:43:22.020Z,95.18
2022-08-17T04:44:36.776Z,95.20
2022-08-17T04:45:55.181Z,95.24
2022-08-17T04:46:59.439Z,95.28
2022-08-17T04:48:02.188Z,95.29
2022-08-17T04:49:10.033Z,95.34
2022-08-17T04:50:12.724Z,95.35
2022-08-17T04:51:17.765Z,95.38
2022-08-17T04:52:29.727Z,95.41
2022-08-17T04:53:44.704Z,95.50
2022-08-17T04:54:47.453Z,95.53
2022-08-17T04:55:52.135Z,95.61
2022-08-17T04:56:55.079Z,95.61
2022-08-17T04:57:57.768Z,95.61
2022-08-17T04:59:02.640Z,95.65
2022-08-17T05:00:06.393Z,95.68
2022-08-17T05:01:09.129Z,95.70
2022-08-17T05:02:14.027Z,95.72
2022-08-17T05:03:16.708Z,95.79
2022-08-17T05:04:34.581Z,95.88
2022-08-17T05:05:39.203Z,95.99
2022-08-17T05:06:41.956Z,96.08
2022-08-17T05:07:44.824Z,96.11
2022-08-17T05:08:47.580Z,96.03
2022-08-17T05:09:50.267Z,96.04
2022-08-17T05:10:52.980Z,95.91
2022-08-17T05:11:56.226Z,95.92
2022-08-17T05:13:01.007Z,95.84
2022-08-17T05:14:03.966Z,95.81
2022-08-17T05:15:10.585Z,95.72
2022-08-17T05:16:13.436Z,95.68
2022-08-17T05:17:16.726Z,95.64
2022-08-17T05:18:19.603Z,95.59
2022-08-17T05:19:22.265Z,95.54
2022-08-17T05:20:25.227Z,95.48
2022-08-17T05:21:28.382Z,95.41
2022-08-17T05:22:31.348Z,95.41
2022-08-17T05:23:42.713Z,95.33
2022-08-17T05:24:53.775Z,95.35
2022-08-17T05:25:58.334Z,95.33
2022-08-17T05:27:06.183Z,95.27
2022-08-17T05:28:10.898Z,95.27
2022-08-17T05:29:13.957Z,95.33
2022-08-17T05:30:17.495Z,95.32
2022-08-17T05:31:20.212Z,95.29
2022-08-17T05:32:39.321Z,95.32
2022-08-17T05:33:44.598Z,95.29
2022-08-17T05:34:49.177Z,95.30
2022-08-17T05:35:54.689Z,95.31
2022-08-17T05:36:57.410Z,95.31
2022-08-17T05:38:01.094Z,95.33
2022-08-17T05:39:03.870Z,95.35
2022-08-17T05:40:07.207Z,95.29
2022-08-17T05:41:10.077Z,95.35
2022-08-17T05:42:12.783Z,95.29
2022-08-17T05:43:20.899Z,95.29
2022-08-17T05:44:23.616Z,95.27
2022-08-17T05:45:39.877Z,95.25
2022-08-17T05:46:51.086Z,95.29
2022-08-17T05:47:53.992Z,95.31
2022-08-17T05:48:59.219Z,95.26
2022-08-17T05:50:02.497Z,95.29
2022-08-17T05:51:12.344Z,95.32
2022-08-17T05:52:33.707Z,95.06
2022-08-17T05:53:49.221Z,94.81
2022-08-17T05:55:10.295Z,95.29
2022-08-17T05:56:29.890Z,95.30
2022-08-17T05:57:53.770Z,95.35
2022-08-17T05:59:09.977Z,95.24
2022-08-17T06:00:16.108Z,95.23
2022-08-17T06:01:31.611Z,95.32
2022-08-17T06:02:47.650Z,95.29
2022-08-17T06:03:50.733Z,95.41
2022-08-17T06:04:59.712Z,95.50
2022-08-17T06:06:21.411Z,94.91
2022-08-17T06:07:46.580Z,95.52
2022-08-17T06:09:07.888Z,95.57
2022-08-17T06:10:10.617Z,95.55
2022-08-17T06:11:22.700Z,95.56
2022-08-17T06:12:44.621Z,95.77
2022-08-17T06:13:47.375Z,95.69
2022-08-17T06:15:01.875Z,95.78
2022-08-17T06:16:33.594Z,95.46
2022-08-17T06:17:31.180Z,95.52
2022-08-17T06:18:44.071Z,95.39
2022-08-17T06:19:55.292Z,94.93
2022-08-17T06:21:00.881Z,95.08
2022-08-17T06:22:05.782Z,95.20
2022-08-17T06:23:10.610Z,95.60
2022-08-17T06:24:22.745Z,95.61
2022-08-17T06:25:44.229Z,95.30
2022-08-17T06:26:47.834Z,95.42
2022-08-17T06:27:54.057Z,95.36
2022-08-17T06:29:00.415Z,94.90
2022-08-17T06:30:16.710Z,95.25
2022-08-17T06:31:22.663Z,95.31
2022-08-17T06:32:25.791Z,95.42
2022-08-17T06:33:34.361Z,95.13
2022-08-17T06:34:38.200Z,95.33
2022-08-17T06:36:02.991Z,95.19
2022-08-17T06:37:31.204Z,95.13
2022-08-17T06:38:49.908Z,95.05
2022-08-17T06:40:03.102Z,95.29
2022-08-17T06:41:15.525Z,95.27
2022-08-17T06:43:02.752Z,95.25
2022-08-17T06:44:42.294Z,94.07
2022-08-17T06:45:49.396Z,94.66
2022-08-17T06:46:56.247Z,94.55
2022-08-17T06:48:01.631Z,94.91
2022-08-17T06:49:21.933Z,94.65
2022-08-17T06:50:24.610Z,94.70
2022-08-17T06:51:30.166Z,94.52
2022-08-17T06:52:45.916Z,94.90
2022-08-17T06:54:00.491Z,94.89
2022-08-17T06:55:06.192Z,94.96
2022-08-17T06:56:10.261Z,95.01
2022-08-17T06:57:23.042Z,94.93
2022-08-17T06:58:29.504Z,94.86
2022-08-17T06:59:55.204Z,94.80
2022-08-17T07:01:04.338Z,95.13
2022-08-17T07:02:09.546Z,94.64
2022-08-17T07:03:24.492Z,94.83
2022-08-17T07:04:31.167Z,94.79
2022-08-17T07:05:33.860Z,94.96
2022-08-17T07:06:42.679Z,95.03
2022-08-17T07:08:03.272Z,95.43
2022-08-17T07:09:08.276Z,95.25
2022-08-17T07:10:12.055Z,95.26
2022-08-17T07:11:16.795Z,95.70
2022-08-17T07:12:22.527Z,96.17
2022-08-17T07:13:31.350Z,96.23
2022-08-17T07:14:36.722Z,96.20
2022-08-17T07:15:42.520Z,95.95
2022-08-17T07:16:53.106Z,95.72
2022-08-17T07:17:59.752Z,94.67
2022-08-17T07:19:02.773Z,95.33
2022-08-17T07:20:10.561Z,95.20
2022-08-17T07:21:30.472Z,95.26
2022-08-17T07:22:55.298Z,94.84
2022-08-17T07:24:01.060Z,95.31
2022-08-17T07:25:06.580Z,95.34
2022-08-17T07:26:09.912Z,95.42
2022-08-17T07:27:14.624Z,95.61
2022-08-17T07:28:22.894Z,95.77
2022-08-17T07:29:27.107Z,95.79
2022-08-17T07:30:47.276Z,96.07
2022-08-17T07:31:50.516Z,95.86
2022-08-17T07:32:58.378Z,95.87
2022-08-17T07:34:03.926Z,96.00
2022-08-17T07:35:18.161Z,96.11
2022-08-17T07:36:29.994Z,96.26
2022-08-17T07:37:33.352Z,95.80
2022-08-17T07:38:54.258Z,95.20
2022-08-17T07:40:14.754Z,94.10
2022-08-17T07:41:20.361Z,95.52
2022-08-17T07:42:23.491Z,95.63
2022-08-17T07:43:27.710Z,95.48
2022-08-17T07:44:46.368Z,95.37
2022-08-17T07:46:13.682Z,95.61
2022-08-17T07:47:35.426Z,95.63
2022-08-17T07:48:38.927Z,95.97
2022-08-17T07:49:46.089Z,95.86
2022-08-17T07:50:49.542Z,95.18
2022-08-17T07:51:56.611Z,95.17
2022-08-17T07:53:15.222Z,93.92
2022-08-17T07:54:28.577Z,94.29
2022-08-17T07:55:32.963Z,95.44
2022-08-17T07:56:41.477Z,95.35
2022-08-17T07:57:54.311Z,94.04
2022-08-17T07:59:09.261Z,95.37
2022-08-17T08:00:24.358Z,95.59
2022-08-17T08:01:39.668Z,95.24
2022-08-17T08:02:47.629Z,95.59
2022-08-17T08:03:52.574Z,95.30
2022-08-17T08:05:08.584Z,95.17
2022-08-17T08:06:25.077Z,91.89
2022-08-17T08:07:31.866Z,93.70
2022-08-17T08:08:42.362Z,92.75
2022-08-17T08:09:58.691Z,88.61
2022-08-17T08:11:03.823Z,92.15
2022-08-17T08:12:33.431Z,92.34
2022-08-17T08:13:42.484Z,94.79
2022-08-17T08:14:53.238Z,95.02
2022-08-17T08:16:11.684Z,95.60
2022-08-17T08:17:22.353Z,95.64
2022-08-17T08:18:55.015Z,94.95
2022-08-17T08:19:50.932Z,95.28
2022-08-17T08:20:55.263Z,95.28
2022-08-17T08:22:02.388Z,94.61
2022-08-17T08:23:05.507Z,94.50
2022-08-17T08:24:11.139Z,92.73
2022-08-17T08:25:25.414Z,95.40
2022-08-17T08:26:37.211Z,95.21
2022-08-17T08:27:39.913Z,94.36
2022-08-17T08:28:54.697Z,90.85
2022-08-17T08:30:06.640Z,88.49
2022-08-17T08:31:18.265Z,91.93
2022-08-17T08:32:36.900Z,92.33
2022-08-17T08:33:44.366Z,86.94
2022-08-17T08:35:01.155Z,86.63
2022-08-17T08:37:12.921Z,91.98
2022-08-17T08:37:47.274Z,90.74
2022-08-17T08:38:56.688Z,93.71
2022-08-17T08:40:17.614Z,92.12
2022-08-17T08:41:34.563Z,86.75
2022-08-17T08:42:43.202Z,92.00
2022-08-17T08:43:52.203Z,86.97
2022-08-17T08:45:05.423Z,84.72
2022-08-17T08:46:20.616Z,90.25
2022-08-17T08:47:41.948Z,89.86
2022-08-17T08:48:55.860Z,89.85
2022-08-17T08:50:05.409Z,87.78
2022-08-17T08:51:20.637Z,87.04
2022-08-17T08:52:41.521Z,90.87
2022-08-17T08:54:04.636Z,92.04
2022-08-17T08:55:15.477Z,91.04
2022-08-17T08:56:27.828Z,92.68
2022-08-17T08:57:38.120Z,94.22
2022-08-17T08:58:51.577Z,94.51
2022-08-17T08:59:54.244Z,89.99
2022-08-17T09:01:03.163Z,94.20
2022-08-17T09:02:20.887Z,91.31
2022-08-17T09:03:52.230Z,87.80
2022-08-17T09:05:15.703Z,89.62
2022-08-17T09:06:33.417Z,87.83
2022-08-17T09:07:56.311Z,90.87
2022-08-17T09:09:17.899Z,88.50
2022-08-17T09:10:39.163Z,85.72
2022-08-17T09:12:01.803Z,85.66
2022-08-17T09:13:10.074Z,82.56
2022-08-17T09:14:28.626Z,76.96
2022-08-17T09:15:40.264Z,77.66
2022-08-17T09:16:46.108Z,81.12
2022-08-17T09:18:28.489Z,76.52
2022-08-17T09:19:53.238Z,84.82
2022-08-17T09:20:57.829Z,79.28
2022-08-17T09:22:03.448Z,77.13
2022-08-17T09:23:22.645Z,80.72
2022-08-17T09:24:31.415Z,80.94
2022-08-17T09:25:42.481Z,84.98
2022-08-17T09:26:54.415Z,77.57
2022-08-17T09:28:00.653Z,79.94
2022-08-17T09:29:07.277Z,83.91
2022-08-17T09:30:11.144Z,80.77
2022-08-17T09:31:20.412Z,84.56
2022-08-17T09:32:44.026Z,79.41
2022-08-17T09:33:48.261Z,83.84
2022-08-17T09:34:54.819Z,84.09
2022-08-17T09:36:02.770Z,81.10
2022-08-17T09:37:24.364Z,76.09
2022-08-17T09:38:53.960Z,70.50
2022-08-17T09:40:06.962Z,73.51
2022-08-17T09:41:15.301Z,76.23
2022-08-17T09:42:22.838Z,83.81
2022-08-17T09:43:37.524Z,80.43
2022-08-17T09:44:42.785Z,72.49
2022-08-17T09:45:50.747Z,69.66
2022-08-17T09:46:56.081Z,75.91
2022-08-17T09:48:12.308Z,83.71
2022-08-17T09:49:27.372Z,73.55
2022-08-17T09:51:04.201Z,71.58
2022-08-17T09:52:07.975Z,72.04
2022-08-17T09:53:10.781Z,70.80
2022-08-17T09:54:38.056Z,68.09
2022-08-17T09:56:08.354Z,70.72
2022-08-17T09:57:30.009Z,74.90
2022-08-17T09:58:42.849Z,72.77
2022-08-17T10:00:08.529Z,73.98
2022-08-17T10:01:23.904Z,68.44
2022-08-17T10:02:45.630Z,75.83
2022-08-17T10:04:00.631Z,71.27
2022-08-17T10:05:03.339Z,75.32
2022-08-17T10:06:35.501Z,76.29
2022-08-17T10:07:56.028Z,70.73
2022-08-17T10:09:08.260Z,68.98
2022-08-17T10:10:25.635Z,76.32
2022-08-17T10:12:06.414Z,73.74
2022-08-17T10:13:26.850Z,68.38
2022-08-17T10:14:45.612Z,66.81
2022-08-17T10:16:07.778Z,69.17
2022-08-17T10:17:18.966Z,66.56
2022-08-17T10:18:44.877Z,66.18
2022-08-17T10:20:16.868Z,71.21
2022-08-17T10:21:38.308Z,66.09
2022-08-17T10:23:07.515Z,65.28
2022-08-17T10:24:31.914Z,66.61
2022-08-17T10:25:56.065Z,66.26
2022-08-17T10:27:00.721Z,68.92
2022-08-17T10:28:11.722Z,67.37
2022-08-17T10:29:25.266Z,69.92
2022-08-17T10:30:33.197Z,66.05
2022-08-17T10:31:40.515Z,67.76
2022-08-17T10:32:55.127Z,65.10
2022-08-17T10:34:00.705Z,65.43
2022-08-17T10:35:12.430Z,65.43
2022-08-17T10:36:20.962Z,67.98
2022-08-17T10:37:52.838Z,68.56
2022-08-17T10:38:58.775Z,69.20
2022-08-17T10:40:20.403Z,68.03
2022-08-17T10:41:26.678Z,70.52
2022-08-17T10:42:37.848Z,66.84
2022-08-17T10:44:36.735Z,65.75
2022-08-17T10:45:18.701Z,64.31
2022-08-17T10:46:29.991Z,63.39
2022-08-17T10:48:04.824Z,63.90
2022-08-17T10:49:14.017Z,63.01
2022-08-17T10:50:42.683Z,63.74
2022-08-17T10:51:48.047Z,66.56
2022-08-17T10:52:50.911Z,63.02
2022-08-17T10:53:54.385Z,62.99
2022-08-17T10:55:13.394Z,66.31
2022-08-17T10:56:19.006Z,69.30
2022-08-17T10:57:31.818Z,63.96
2022-08-17T10:58:54.870Z,70.57
2022-08-17T10:59:58.945Z,63.17
2022-08-17T11:01:02.324Z,62.73
2022-08-17T11:02:17.613Z,62.95
2022-08-17T11:03:23.603Z,64.37
2022-08-17T11:04:45.884Z,62.53
2022-08-17T11:05:50.302Z,63.09
2022-08-17T11:07:02.157Z,61.59
2022-08-17T11:08:23.413Z,66.90
2022-08-17T11:09:49.810Z,69.26
2022-08-17T11:11:01.721Z,63.91
2022-08-17T11:12:07.283Z,64.03
2022-08-17T11:13:35.490Z,66.14
2022-08-17T11:14:58.003Z,66.67
2022-08-17T11:16:06.131Z,66.60
2022-08-17T11:17:23.199Z,65.74
2022-08-17T11:18:34.900Z,61.44
2022-08-17T11:19:40.305Z,67.35
2022-08-17T11:20:55.147Z,65.05
2022-08-17T11:22:03.828Z,61.21
2022-08-17T11:23:09.519Z,70.90
2022-08-17T11:24:17.868Z,72.86
2022-08-17T11:25:31.291Z,65.36
2022-08-17T11:26:35.775Z,62.66
2022-08-17T11:27:38.569Z,62.11
2022-08-17T11:28:48.797Z,61.26
2022-08-17T11:30:01.898Z,59.30
2022-08-17T11:31:08.982Z,63.95
2022-08-17T11:32:30.243Z,60.89
2022-08-17T11:33:32.873Z,59.60
2022-08-17T11:34:35.638Z,59.28
2022-08-17T11:35:45.033Z,58.10
2022-08-17T11:36:53.669Z,64.28
2022-08-17T11:37:59.645Z,61.54
2022-08-17T11:39:25.111Z,59.58
2022-08-17T11:40:41.403Z,64.85
2022-08-17T11:42:07.323Z,60.54
2022-08-17T11:43:27.420Z,62.85
2022-08-17T11:44:47.158Z,57.38
2022-08-17T11:45:50.057Z,59.00
2022-08-17T11:47:17.668Z,57.97
2022-08-17T11:48:39.372Z,56.69
2022-08-17T11:50:16.232Z,57.39
2022-08-17T11:51:36.252Z,57.35
2022-08-17T11:52:39.276Z,57.52
2022-08-17T11:53:43.104Z,57.32
2022-08-17T11:54:47.071Z,57.39
2022-08-17T11:55:52.731Z,57.60
2022-08-17T11:56:56.436Z,57.73
2022-08-17T11:58:03.539Z,60.33
2022-08-17T11:59:25.496Z,57.12
2022-08-17T12:00:52.056Z,55.27
2022-08-17T12:01:56.749Z,59.29
2022-08-17T12:03:22.276Z,61.25
2022-08-17T12:04:25.284Z,57.39
2022-08-17T12:05:31.155Z,57.92
2022-08-17T12:06:42.417Z,57.24
2022-08-17T12:07:51.912Z,57.57
2022-08-17T12:08:58.387Z,57.50
2022-08-17T12:10:01.465Z,57.07
2022-08-17T12:11:12.262Z,57.50
2022-08-17T12:12:22.143Z,55.42
2022-08-17T12:13:30.541Z,56.14
2022-08-17T12:15:11.013Z,55.44
2022-08-17T12:16:16.794Z,55.10
2022-08-17T12:17:39.679Z,55.88
2022-08-17T12:18:58.057Z,54.56
2022-08-17T12:20:19.455Z,54.48
2022-08-17T12:21:22.424Z,52.90
2022-08-17T12:22:33.265Z,54.45
2022-08-17T12:23:41.776Z,53.52
2022-08-17T12:24:54.615Z,53.83
2022-08-17T12:26:00.578Z,53.46
2022-08-17T12:27:05.775Z,53.21
2022-08-17T12:28:22.116Z,57.44
2022-08-17T12:29:38.513Z,63.89
2022-08-17T12:30:48.625Z,53.51
2022-08-17T12:31:55.088Z,50.88
2022-08-17T12:32:58.283Z,53.44
2022-08-17T12:34:02.692Z,54.58
2022-08-17T12:35:06.594Z,53.40
2022-08-17T12:36:14.816Z,51.06
2022-08-17T12:37:23.526Z,52.43
2022-08-17T12:38:33.255Z,51.79
2022-08-17T12:39:38.408Z,57.83
2022-08-17T12:40:53.411Z,58.04
2022-08-17T12:42:02.376Z,49.66
2022-08-17T12:43:07.763Z,49.70
2022-08-17T12:44:22.595Z,51.07
2022-08-17T12:45:29.382Z,57.29
2022-08-17T12:46:34.857Z,52.21
2022-08-17T12:47:38.256Z,50.78
2022-08-17T12:48:58.998Z,49.12
2022-08-17T12:50:28.970Z,50.43
2022-08-17T12:51:31.834Z,50.84
2022-08-17T12:52:37.543Z,50.92
2022-08-17T12:53:42.459Z,62.56
2022-08-17T12:54:51.253Z,53.33
2022-08-17T12:55:54.884Z,51.32
2022-08-17T12:57:02.182Z,50.55
2022-08-17T12:58:07.406Z,51.91
2022-08-17T12:59:12.811Z,55.44
2022-08-17T13:00:34.001Z,67.59
2022-08-17T13:01:41.743Z,55.62
2022-08-17T13:02:49.504Z,49.64
2022-08-17T13:03:57.213Z,45.47
2022-08-17T13:05:01.236Z,46.52
2022-08-17T13:06:09.613Z,50.76
2022-08-17T13:07:14.271Z,52.06
2022-08-17T13:08:19.124Z,54.73
2022-08-17T13:09:35.364Z,47.35
2022-08-17T13:10:39.774Z,49.60
2022-08-17T13:11:50.736Z,48.13
2022-08-17T13:12:54.031Z,47.71
2022-08-17T13:14:08.527Z,50.58
2022-08-17T13:15:19.711Z,50.66
2022-08-17T13:16:26.693Z,44.84
2022-08-17T13:17:32.368Z,48.71
2022-08-17T13:18:47.431Z,45.90
2022-08-17T13:19:50.923Z,47.89
2022-08-17T13:20:55.042Z,42.42
2022-08-17T13:21:59.544Z,44.75
2022-08-17T13:23:07.517Z,43.80
2022-08-17T13:24:25.653Z,44.46
2022-08-17T13:25:29.791Z,50.66
2022-08-17T13:26:35.573Z,45.11
2022-08-17T13:27:42.094Z,43.50
2022-08-17T13:28:51.787Z,51.14
2022-08-17T13:29:57.908Z,49.20
2022-08-17T13:31:19.380Z,48.97
2022-08-17T13:32:33.378Z,53.98
2022-08-17T13:33:43.498Z,51.78
2022-08-17T13:35:12.537Z,47.70
2022-08-17T13:36:28.213Z,49.60
2022-08-17T13:37:35.512Z,48.92
2022-08-17T13:38:50.976Z,47.24
2022-08-17T13:39:55.987Z,43.97
2022-08-17T13:40:59.002Z,51.95
2022-08-17T13:42:02.104Z,50.24
2022-08-17T13:43:05.463Z,49.65
2022-08-17T13:44:28.854Z,44.86
2022-08-17T13:45:39.716Z,45.87
2022-08-17T13:46:50.658Z,39.66
2022-08-17T13:48:11.918Z,42.48
2022-08-17T13:49:18.284Z,47.46
2022-08-17T13:50:21.537Z,50.74
2022-08-17T13:51:26.594Z,50.42
2022-08-17T13:52:34.922Z,41.60
2022-08-17T13:53:40.646Z,52.12
2022-08-17T13:54:50.021Z,56.57
2022-08-17T13:55:54.634Z,45.83
2022-08-17T13:57:05.499Z,43.57
2022-08-17T13:58:08.404Z,60.03
2022-08-17T13:59:13.707Z,50.81
2022-08-17T14:00:30.626Z,47.17
2022-08-17T14:01:39.509Z,53.96
2022-08-17T14:02:42.343Z,48.70
2022-08-17T14:03:45.030Z,53.33
2022-08-17T14:04:54.014Z,59.86
2022-08-17T14:05:56.882Z,48.27
2022-08-17T14:07:22.530Z,41.33
2022-08-17T14:08:29.053Z,47.22
2022-08-17T14:09:37.259Z,53.81
2022-08-17T14:10:40.692Z,46.04
2022-08-17T14:11:44.980Z,59.12
2022-08-17T14:12:50.292Z,48.70
2022-08-17T14:13:53.048Z,49.48
2022-08-17T14:14:56.445Z,57.04
2022-08-17T14:15:59.287Z,48.48
2022-08-17T14:17:02.063Z,47.17
2022-08-17T14:18:04.763Z,44.01
2022-08-17T14:19:09.402Z,46.67
2022-08-17T14:20:12.751Z,46.21
2022-08-17T14:21:15.613Z,43.83
2022-08-17T14:22:20.196Z,50.94
2022-08-17T14:23:22.977Z,50.33
2022-08-17T14:24:28.109Z,45.05
2022-08-17T14:25:30.798Z,55.63
2022-08-17T14:26:33.670Z,40.35
2022-08-17T14:27:43.606Z,42.07
2022-08-17T14:28:57.045Z,40.10
2022-08-17T14:30:01.619Z,45.99
2022-08-17T14:31:06.327Z,44.60
2022-08-17T14:32:28.731Z,49.56
2022-08-17T14:33:31.553Z,56.57
2022-08-17T14:34:34.408Z,51.04
2022-08-17T14:35:37.033Z,55.72
2022-08-17T14:36:41.881Z,45.94
2022-08-17T14:37:52.154Z,51.44
2022-08-17T14:38:54.940Z,39.76
2022-08-17T14:39:59.872Z,39.32
2022-08-17T14:41:03.079Z,50.45
2022-08-17T14:42:05.791Z,48.38
2022-08-17T14:43:08.803Z,49.80
2022-08-17T14:44:12.566Z,43.49
2022-08-17T14:45:31.983Z,43.90
2022-08-17T14:46:35.864Z,40.08
2022-08-17T14:47:39.898Z,42.53
2022-08-17T14:48:42.645Z,43.54
2022-08-17T14:49:48.369Z,42.69
2022-08-17T14:50:51.167Z,43.27
2022-08-17T14:51:54.045Z,58.46
2022-08-17T14:52:57.932Z,43.30
2022-08-17T14:54:01.088Z,44.80
2022-08-17T14:55:04.546Z,52.82
2022-08-17T14:56:07.411Z,47.85